Time;durP1;ratioP1;P1;durP2;ratioP2;P2;SDS_P1;SDS_P2;PMS_P1;PMS_P2;Temp;Humidity;BMP_temperature;BMP_pressure;BME280_temperature;BME280_humidity;BME280_pressure;Samples;Min_cycle;Max_cycle;Signal;HPM_P1;HPM_P2
2022/12/14 00:02:12;;;;;;;80.23;25.57;;;;;;;-6.31;100.00;145858.59;5039321;28;20480;-71
2022/12/14 00:04:38;;;;;;;75.87;23.27;;;;;;;-6.36;100.00;145845.84;5045087;28;20626;-72
2022/12/14 00:07:03;;;;;;;60.37;18.47;;;;;;;-6.37;100.00;145844.59;5037096;28;20028;-71
2022/12/14 00:09:29;;;;;;;60.53;19.63;;;;;;;-6.24;100.00;145877.72;5030495;28;20470;-71
2022/12/14 00:11:54;;;;;;;69.47;20.40;;;;;;;-6.26;100.00;145871.38;5030077;28;20029;-71
2022/12/14 00:14:19;;;;;;;57.80;19.93;;;;;;;-6.28;100.00;145867.56;5037557;28;20502;-72
2022/12/14 00:16:45;;;;;;;61.53;20.30;;;;;;;-6.24;100.00;145876.47;5030323;28;20075;-71
2022/12/14 00:19:10;;;;;;;73.00;23.60;;;;;;;-6.32;100.00;145856.03;5029829;28;20057;-72
2022/12/14 00:21:35;;;;;;;76.30;23.87;;;;;;;-6.39;100.00;145839.50;5043034;28;20756;-72
2022/12/14 00:24:01;;;;;;;75.13;23.93;;;;;;;-6.49;100.00;145813.97;5037253;28;20055;-72
2022/12/14 00:26:31;;;;;;;79.57;23.30;;;;;;;-6.58;100.00;145792.31;5039482;28;20393;-71
2022/12/14 00:28:57;;;;;;;72.60;23.53;;;;;;;-6.68;100.00;145765.53;5034154;28;20029;-72
2022/12/14 00:31:23;;;;;;;71.07;23.17;;;;;;;-6.74;100.00;145750.25;5038241;28;20275;-71
2022/12/14 00:33:49;;;;;;;59.87;19.43;;;;;;;-6.51;100.00;145810.16;5050280;28;20266;-72
2022/12/14 00:36:15;;;;;;;64.83;21.03;;;;;;;-6.43;100.00;145828.00;5048053;28;20268;-71
2022/12/14 00:38:41;;;;;;;62.53;20.53;;;;;;;-6.42;100.00;145831.84;5036293;28;20747;-71
2022/12/14 00:41:08;;;;;;;42.00;14.93;;;;;;;-6.36;100.00;145847.13;5031364;28;20398;-71
2022/12/14 00:43:33;;;;;;;58.33;20.90;;;;;;;-6.36;100.00;145845.84;5031263;28;20260;-72
2022/12/14 00:45:59;;;;;;;57.67;19.60;;;;;;;-6.38;100.00;145842.03;5032828;28;20294;-72
2022/12/14 00:48:25;;;;;;;55.93;17.57;;;;;;;-6.39;100.00;145838.22;5032517;28;20155;-72
2022/12/14 00:50:51;;;;;;;71.20;21.60;;;;;;;-6.43;100.00;145828.00;5045339;28;20025;-72
2022/12/14 00:53:17;;;;;;;64.80;20.93;;;;;;;-6.44;100.00;145825.44;5050675;28;20492;-71
2022/12/14 00:55:45;;;;;;;61.80;21.10;;;;;;;-6.42;100.00;145830.53;5040565;28;20271;-72
2022/12/14 00:58:12;;;;;;;67.60;21.37;;;;;;;-6.50;100.00;145812.72;5038150;28;20032;-72
2022/12/14 01:00:38;;;;;;;68.27;21.47;;;;;;;-6.55;100.00;145799.94;5034682;28;20279;-71
2022/12/14 01:03:05;;;;;;;69.50;23.47;;;;;;;-6.60;100.00;145787.22;5043889;28;20282;-72
2022/12/14 01:05:33;;;;;;;65.57;21.43;;;;;;;-6.66;100.00;145770.63;5036559;28;20037;-72
2022/12/14 01:07:58;;;;;;;70.30;23.47;;;;;;;-6.65;100.00;145774.47;5030258;28;20307;-72
2022/12/14 01:10:23;;;;;;;70.20;20.67;;;;;;;-6.67;100.00;145769.34;5044479;28;20322;-71
2022/12/14 01:12:49;;;;;;;69.90;22.30;;;;;;;-6.65;100.00;145773.22;5038953;28;20025;-71
2022/12/14 01:15:14;;;;;;;61.60;22.27;;;;;;;-6.60;100.00;145787.22;5036731;28;20025;-72
2022/12/14 01:17:39;;;;;;;65.30;20.47;;;;;;;-6.64;100.00;145777.03;5036980;28;20449;-72
2022/12/14 01:20:05;;;;;;;68.30;20.70;;;;;;;-6.65;100.00;145773.22;5045732;28;20164;-72
2022/12/14 01:22:30;;;;;;;75.90;22.27;;;;;;;-6.67;100.00;145769.34;5049985;28;20028;-72
2022/12/14 01:24:56;;;;;;;62.40;22.20;;;;;;;-6.69;100.00;145764.25;5035487;28;20029;-72
2022/12/14 01:27:21;;;;;;;65.10;22.40;;;;;;;-6.70;100.00;145760.44;5035307;28;20049;-71
2022/12/14 01:29:47;;;;;;;70.03;23.13;;;;;;;-6.81;100.00;145733.66;5037688;28;20032;-72
2022/12/14 01:32:12;;;;;;;74.47;22.10;;;;;;;-6.88;100.00;145715.84;5041694;28;20056;-72
2022/12/14 01:34:37;;;;;;;79.83;23.17;;;;;;;-6.91;100.00;145708.16;5044532;28;20020;-72
2022/12/14 01:37:03;;;;;;;74.53;22.40;;;;;;;-6.92;100.00;145705.63;5042939;28;20017;-72
2022/12/14 01:39:28;;;;;;;74.73;22.60;;;;;;;-6.88;100.00;145715.84;5046892;28;20104;-71
2022/12/14 01:41:54;;;;;;;72.90;21.83;;;;;;;-6.91;100.00;145708.16;5044464;28;20033;-72
2022/12/14 01:44:19;;;;;;;68.53;21.70;;;;;;;-6.92;100.00;145706.91;5042748;28;20098;-72
2022/12/14 01:46:49;;;;;;;68.83;22.53;;;;;;;-6.90;100.00;145712.03;5028678;28;20022;-72
2022/12/14 01:49:22;;;;;;;64.83;21.90;;;;;;;-7.01;100.00;145682.72;5041314;28;20539;-71
2022/12/14 01:51:55;;;;;;;67.17;20.43;;;;;;;-7.12;100.00;145657.22;5040457;28;20621;-71
2022/12/14 01:54:25;;;;;;;65.00;20.53;;;;;;;-7.17;100.00;145643.19;5039053;28;20279;-71
2022/12/14 01:56:52;;;;;;;67.40;22.23;;;;;;;-7.18;100.00;145641.94;5034419;28;20318;-72
2022/12/14 01:59:25;;;;;;;64.80;19.60;;;;;;;-7.20;100.00;145635.56;5040476;28;20287;-71
2022/12/14 02:01:52;;;;;;;72.10;20.53;;;;;;;-7.20;100.00;145636.84;5049121;28;20279;-72
2022/12/14 02:04:19;;;;;;;76.47;22.73;;;;;;;-7.17;100.00;145644.47;5048555;23;20322;-62
2022/12/14 02:06:47;;;;;;;74.80;22.20;;;;;;;-7.21;100.00;145634.28;5043221;28;20364;-63
2022/12/14 02:09:19;;;;;;;72.90;21.17;;;;;;;-7.20;100.00;145636.84;5047346;28;20283;-63
2022/12/14 02:12:01;;;;;;;72.85;22.58;;;;;;;-7.21;100.00;145634.28;5034414;28;20374;-62
2022/12/14 02:14:29;;;;;;;66.43;20.30;;;;;;;-7.22;100.00;145631.75;5050580;28;20562;-62
2022/12/14 02:16:56;;;;;;;61.80;21.17;;;;;;;-7.22;100.00;145631.75;5030378;28;20282;-62
2022/12/14 02:19:22;;;;;;;63.83;20.53;;;;;;;-7.26;100.00;145621.56;5048861;28;20314;-62
2022/12/14 02:22:15;;;;;;;67.33;19.37;;;;;;;-7.28;100.00;145616.44;5044478;28;20685;-61
2022/12/14 02:25:07;;;;;;;63.13;20.23;;;;;;;-7.31;100.00;145607.53;5046165;28;20037;-61
2022/12/14 02:28:01;;;;;;;68.70;20.77;;;;;;;-7.34;100.00;145601.19;5046526;28;20291;-62
2022/12/14 02:30:33;;;;;;;62.90;19.60;;;;;;;-7.39;100.00;145588.41;5041397;28;20155;-62
2022/12/14 02:33:37;;;;;;;68.50;21.27;;;;;;;-7.39;100.00;145588.41;5045073;28;20758;-61
2022/12/14 02:36:05;;;;;;;56.43;17.63;;;;;;;-7.33;100.00;145602.44;5036877;28;20710;-62
2022/12/14 02:38:55;;;;;;;63.00;17.80;;;;;;;-7.21;100.00;145633.03;5053265;28;20271;-61
2022/12/14 02:41:43;;;;;;;56.87;18.33;;;;;;;-7.18;100.00;145641.94;5053604;28;20282;-61
2022/12/14 02:44:25;;;;;;;61.93;20.23;;;;;;;-7.17;100.00;145644.47;5052293;28;20762;-62
2022/12/14 02:46:56;;;;;;;62.63;19.48;;;;;;;-7.10;100.00;145662.31;5051121;28;20291;-62
2022/12/14 02:49:31;;;;;;;;;;;;;;;-7.18;100.00;145641.94;5053714;28;20043;-60
2022/12/14 02:52:17;;;;;;;55.37;17.53;;;;;;;-7.22;100.00;145630.47;5051131;28;19927;-62
2022/12/14 02:54:52;;;;;;;63.83;18.37;;;;;;;-7.34;100.00;145601.19;5052829;28;20279;-61
2022/12/14 02:57:37;;;;;;;61.50;19.90;;;;;;;-7.48;100.00;145566.78;5045907;28;20333;-61
2022/12/14 03:00:05;;;;;;;56.73;18.30;;;;;;;-7.38;100.00;145592.28;5050747;28;20317;-62
2022/12/14 03:02:35;;;;;;;60.67;19.20;;;;;;;-7.36;100.00;145596.09;5052144;28;20275;-62
2022/12/14 03:05:01;;;;;;;59.00;19.87;;;;;;;-7.42;100.00;145582.06;5040602;28;20715;-61
2022/12/14 03:07:32;;;;;;;64.47;20.33;;;;;;;-7.50;100.00;145561.72;5033610;28;20280;-61
2022/12/14 03:10:08;;;;;;;69.03;21.13;;;;;;;-7.55;100.00;145548.94;5030513;28;20383;-61
2022/12/14 03:12:35;;;;;;;56.20;19.07;;;;;;;-7.74;100.00;145501.84;5027978;28;20029;-62
2022/12/14 03:15:03;;;;;;;67.10;20.07;;;;;;;-7.85;100.00;145472.56;5031541;28;20280;-61
2022/12/14 03:17:32;;;;;;;62.40;19.70;;;;;;;-7.91;100.00;145458.53;5029771;28;20276;-62
2022/12/14 03:20:05;;;;;;;54.53;19.87;;;;;;;-7.94;100.00;145450.91;5014224;28;20698;-62
2022/12/14 03:22:49;;;;;;;59.20;18.77;;;;;;;-7.85;100.00;145472.56;5032355;28;20271;-62
2022/12/14 03:25:21;;;;;;;57.27;18.30;;;;;;;-7.78;100.00;145491.63;5028193;28;20310;-62
2022/12/14 03:27:52;;;;;;;;;;;;;;;-7.72;100.00;145506.94;5030256;28;20277;-61
2022/12/14 03:30:18;;;;;;;51.13;16.08;;;;;;;-7.69;100.00;145514.56;5028492;28;20389;-61
2022/12/14 03:32:49;;;;;;;53.63;17.43;;;;;;;-7.62;100.00;145529.88;5026597;28;20037;-61
2022/12/14 03:35:16;;;;;;;56.27;17.87;;;;;;;-7.59;100.00;145538.78;5032422;28;20288;-61
2022/12/14 03:37:49;;;;;;;51.77;18.00;;;;;;;-7.53;100.00;145552.75;5032960;28;20306;-61
2022/12/14 03:40:16;;;;;;;53.13;17.73;;;;;;;-7.52;100.00;145555.31;5030160;28;20288;-63
2022/12/14 03:42:45;;;;;;;54.33;17.60;;;;;;;-7.49;100.00;145562.97;5033167;28;20355;-61
2022/12/14 03:45:20;;;;;;;58.67;17.77;;;;;;;-7.50;100.00;145560.44;5030919;28;20749;-63
2022/12/14 03:48:22;;;;;;;51.37;16.67;;;;;;;-7.52;100.00;145555.31;5031554;28;20740;-66
2022/12/14 03:50:58;;;;;;;50.00;15.13;;;;;;;-7.49;100.00;145562.97;5030592;28;20760;-67
2022/12/14 03:53:54;;;;;;;52.37;17.47;;;;;;;-7.42;100.00;145580.78;5032143;28;20308;-66
2022/12/14 03:56:19;;;;;;;47.13;14.63;;;;;;;-7.31;100.00;145608.81;5028216;28;20296;-66
2022/12/14 03:59:29;;;;;;;48.97;14.60;;;;;;;-7.22;100.00;145630.47;5032004;28;20361;-66
2022/12/14 04:01:57;;;;;;;40.67;13.23;;;;;;;-7.18;100.00;145640.66;5005104;28;20056;-66
2022/12/14 04:04:50;;;;;;;33.20;12.10;;;;;;;-7.09;100.00;145664.88;5009177;28;20324;-66
2022/12/14 04:07:24;;;;;;;35.37;11.37;;;;;;;-7.01;100.00;145682.72;4993666;28;20288;-66
2022/12/14 04:18:55;;;;;;;46.43;14.83;;;;;;;-6.94;100.00;145701.81;5007004;28;20411;-66
2022/12/14 04:18:58;;;;;;;47.50;14.57;;;;;;;-6.85;100.00;145724.75;5009216;28;20152;-66
2022/12/14 04:21:42;;;;;;;44.70;14.37;;;;;;;-6.94;100.00;145700.53;5007532;28;20332;-66
2022/12/14 04:27:05;;;;;;;31.00;10.50;;;;;;;-6.86;100.00;145720.94;5007093;28;20284;-66
2022/12/14 04:32:27;;;;;;;30.73;10.10;;;;;;;-6.72;100.00;145756.63;5010146;28;20393;-66
2022/12/14 04:34:59;;;;;;;19.97;8.73;;;;;;;-6.68;100.00;145765.53;5028834;28;20397;-66
2022/12/14 04:37:27;;;;;;;15.85;6.85;;;;;;;-6.65;100.00;145774.47;5031778;28;20307;-66
2022/12/14 04:40:00;;;;;;;10.80;4.53;;;;;;;-6.66;100.00;145770.63;5029880;28;20029;-66
2022/12/14 04:42:32;;;;;;;14.27;5.13;;;;;;;-6.60;100.00;145787.22;5012487;28;20271;-66
2022/12/14 04:45:10;;;;;;;14.03;7.23;;;;;;;-6.52;100.00;145807.63;5030740;28;20292;-66
2022/12/14 04:47:43;;;;;;;10.97;5.50;;;;;;;-6.41;100.00;145834.41;5031303;28;20288;-66
2022/12/14 04:50:16;;;;;;;16.70;6.83;;;;;;;-6.35;100.00;145848.41;5032254;28;20703;-67
2022/12/14 04:52:46;;;;;;;22.53;8.50;;;;;;;-6.28;100.00;145867.56;5029641;28;20753;-66
2022/12/14 04:55:20;;;;;;;32.97;11.73;;;;;;;-6.27;100.00;145868.81;5030164;28;20313;-67
2022/12/14 04:57:57;;;;;;;31.27;11.50;;;;;;;-6.29;100.00;145863.72;5030400;28;20679;-67
2022/12/14 05:00:23;;;;;;;35.13;12.07;;;;;;;-6.31;100.00;145859.84;5028794;28;20367;-66
2022/12/14 05:03:00;;;;;;;37.63;13.33;;;;;;;-6.53;100.00;145805.06;5031332;28;20380;-66
2022/12/14 05:05:28;;;;;;;36.40;12.93;;;;;;;-6.65;100.00;145774.47;5025024;28;20037;-66
2022/12/14 05:08:18;;;;;;;33.27;12.70;;;;;;;-6.73;100.00;145752.81;5031149;28;20276;-66
2022/12/14 05:11:01;;;;;;;45.50;14.50;;;;;;;-6.86;100.00;145722.22;5026377;28;20298;-66
2022/12/14 05:13:44;;;;;;;40.27;12.87;;;;;;;-7.00;100.00;145686.53;5027794;28;20284;-66
2022/12/14 05:16:13;;;;;;;33.60;12.90;;;;;;;-7.00;100.00;145686.53;5029563;28;20791;-67
2022/12/14 05:18:42;;;;;;;35.93;14.03;;;;;;;-6.95;100.00;145698.00;5030725;28;20276;-66
2022/12/14 05:21:08;;;;;;;35.33;11.57;;;;;;;-7.01;100.00;145682.72;5031427;28;20358;-66
2022/12/14 05:23:33;;;;;;;33.57;12.97;;;;;;;-7.06;100.00;145669.97;5030987;28;20284;-66
2022/12/14 05:25:59;;;;;;;42.13;12.77;;;;;;;-7.00;100.00;145686.53;5026386;28;20644;-66
2022/12/14 05:28:24;;;;;;;34.07;13.20;;;;;;;-6.96;100.00;145695.44;5025804;28;20053;-66
2022/12/14 05:30:50;;;;;;;32.97;11.60;;;;;;;-6.91;100.00;145708.16;5029029;28;20147;-66
2022/12/14 05:33:19;;;;;;;40.17;15.27;;;;;;;-6.96;100.00;145695.44;5030887;28;20108;-66
2022/12/14 05:35:45;;;;;;;41.80;16.63;;;;;;;-7.01;100.00;145682.72;5030654;28;20304;-67
2022/12/14 05:38:12;;;;;;;39.63;18.07;;;;;;;-7.05;100.00;145672.50;5030057;28;20311;-67
2022/12/14 05:40:38;;;;;;;45.37;17.23;;;;;;;-7.14;100.00;145650.88;5028310;28;20033;-67
2022/12/14 05:43:05;;;;;;;44.77;15.43;;;;;;;-7.17;100.00;145644.47;5025984;28;20364;-66
2022/12/14 05:45:30;;;;;;;38.60;14.63;;;;;;;-7.23;100.00;145629.19;5027670;28;20370;-67
2022/12/14 05:47:56;;;;;;;39.03;15.53;;;;;;;-7.28;100.00;145616.44;5030815;28;20359;-67
2022/12/14 05:50:21;;;;;;;40.67;16.60;;;;;;;-7.24;100.00;145626.66;5029997;28;20044;-66
2022/12/14 05:52:46;;;;;;;42.47;14.03;;;;;;;-7.23;100.00;145629.19;5029613;28;20492;-67
2022/12/14 05:55:12;;;;;;;37.53;13.67;;;;;;;-7.17;100.00;145644.47;5025442;28;20057;-66
2022/12/14 05:57:37;;;;;;;36.77;13.07;;;;;;;-7.10;100.00;145662.31;5029005;28;20022;-67
2022/12/14 06:00:03;;;;;;;35.43;15.03;;;;;;;-7.12;100.00;145657.22;5029598;28;20040;-66
2022/12/14 06:02:29;;;;;;;34.90;13.47;;;;;;;-7.15;100.00;145649.59;5026921;28;20116;-67
2022/12/14 06:04:54;;;;;;;39.20;14.70;;;;;;;-7.14;100.00;145650.88;5030728;28;20355;-67
2022/12/14 06:07:19;;;;;;;36.70;14.47;;;;;;;-7.13;100.00;145654.69;5030601;28;20066;-66
2022/12/14 06:09:45;;;;;;;36.90;14.53;;;;;;;-7.03;100.00;145677.59;5030472;28;20029;-67
2022/12/14 06:12:10;;;;;;;29.43;12.20;;;;;;;-6.93;100.00;145703.09;5031045;28;20389;-65
2022/12/14 06:14:36;;;;;;;33.70;12.30;;;;;;;-6.88;100.00;145715.84;5033895;28;20033;-66
2022/12/14 06:17:01;;;;;;;27.53;10.43;;;;;;;-6.76;100.00;145746.44;5032479;28;20063;-66
2022/12/14 06:19:26;;;;;;;28.53;10.70;;;;;;;-6.70;100.00;145760.44;5030896;28;20057;-65
2022/12/14 06:21:52;;;;;;;30.27;11.83;;;;;;;-6.67;100.00;145769.34;5033054;28;20017;-66
2022/12/14 06:24:17;;;;;;;30.80;12.47;;;;;;;-6.77;100.00;145742.63;5034036;28;20436;-67
2022/12/14 06:26:43;;;;;;;34.80;13.07;;;;;;;-6.85;100.00;145723.50;5033714;28;20017;-67
2022/12/14 06:29:14;;;;;;;33.53;13.83;;;;;;;-6.83;100.00;145728.56;5030443;28;20120;-67
2022/12/14 06:31:40;;;;;;;31.90;13.47;;;;;;;-6.86;100.00;145720.94;5033301;28;20060;-67
2022/12/14 06:34:06;;;;;;;30.87;12.47;;;;;;;-6.91;100.00;145708.16;5032118;28;20280;-66
2022/12/14 06:36:34;;;;;;;31.13;12.17;;;;;;;-6.92;100.00;145706.91;5033649;28;20025;-66
2022/12/14 06:39:03;;;;;;;35.47;14.17;;;;;;;-6.89;100.00;145713.31;5031187;28;20033;-66
2022/12/14 06:41:28;;;;;;;39.57;14.53;;;;;;;-6.98;100.00;145690.34;5030455;28;20739;-66
2022/12/14 06:43:54;;;;;;;32.37;13.70;;;;;;;-7.11;100.00;145659.78;5032237;28;20318;-67
2022/12/14 06:46:21;;;;;;;37.50;14.53;;;;;;;-7.18;100.00;145641.94;5032556;28;20022;-66
2022/12/14 06:48:54;;;;;;;36.80;12.70;;;;;;;-7.16;100.00;145647.00;5031668;28;20389;-66
2022/12/14 06:51:20;;;;;;;29.93;12.77;;;;;;;-7.12;100.00;145657.22;5025279;28;20338;-66
2022/12/14 06:53:50;;;;;;;32.43;12.97;;;;;;;-7.09;100.00;145664.88;5025794;28;20282;-65
2022/12/14 06:56:17;;;;;;;28.50;11.33;;;;;;;-7.03;100.00;145678.88;5023791;28;20272;-67
2022/12/14 06:58:43;;;;;;;26.23;12.23;;;;;;;-7.00;100.00;145685.28;5021071;28;20326;-66
2022/12/14 07:01:17;;;;;;;29.00;11.87;;;;;;;-6.98;100.00;145690.34;5034432;28;20654;-66
2022/12/14 07:03:47;;;;;;;31.07;12.87;;;;;;;-6.99;100.00;145687.81;5033978;28;20276;-66
2022/12/14 07:06:12;;;;;;;36.67;13.63;;;;;;;-7.01;100.00;145682.72;5027925;28;20295;-66
2022/12/14 07:08:38;;;;;;;35.20;14.57;;;;;;;-7.05;100.00;145672.50;5032050;28;20299;-66
2022/12/14 07:11:07;;;;;;;35.87;13.70;;;;;;;-7.06;100.00;145669.97;5032255;28;20021;-67
2022/12/14 07:13:34;;;;;;;33.87;13.13;;;;;;;-6.96;100.00;145696.72;5028952;28;20032;-67
2022/12/14 07:15:59;;;;;;;22.33;9.43;;;;;;;-6.95;100.00;145698.00;5044097;28;20692;-67
2022/12/14 07:18:26;;;;;;;29.13;11.00;;;;;;;-6.91;100.00;145708.16;5032080;28;20303;-67
2022/12/14 07:21:12;;;;;;;34.90;12.63;;;;;;;-6.90;100.00;145712.03;5033625;28;20393;-67
2022/12/14 07:23:39;;;;;;;27.23;12.13;;;;;;;-6.94;100.00;145700.53;5033403;28;20264;-66
2022/12/14 07:26:10;;;;;;;31.63;12.43;;;;;;;-6.95;100.00;145698.00;5030715;28;20292;-66
2022/12/14 07:28:36;;;;;;;26.37;8.37;;;;;;;-6.98;100.00;145690.34;5032206;28;20647;-67
2022/12/14 07:31:03;;;;;;;25.67;9.47;;;;;;;-7.00;100.00;145685.28;5022597;28;20509;-67
2022/12/14 07:33:29;;;;;;;32.57;11.97;;;;;;;-7.09;100.00;145664.88;5019161;28;20853;-66
2022/12/14 07:36:06;;;;;;;35.80;14.07;;;;;;;-7.23;100.00;145629.19;5031836;28;20346;-66
2022/12/14 07:38:32;;;;;;;40.97;14.70;;;;;;;-7.33;100.00;145603.72;5028052;28;20021;-67
2022/12/14 07:41:14;;;;;;;35.37;15.17;;;;;;;-7.46;100.00;145571.88;5032613;28;20276;-66
2022/12/14 07:43:40;;;;;;;39.10;15.07;;;;;;;-7.53;100.00;145552.75;5030804;28;20283;-66
2022/12/14 07:46:09;;;;;;;43.63;14.63;;;;;;;-7.56;100.00;145545.13;5032581;28;20318;-66
2022/12/14 07:48:35;;;;;;;41.00;15.03;;;;;;;-7.56;100.00;145546.41;5033408;28;20252;-66
2022/12/14 07:51:06;;;;;;;37.60;14.73;;;;;;;-7.63;100.00;145528.59;5033115;28;20261;-66
2022/12/14 07:53:31;;;;;;;29.50;11.38;;;;;;;-7.70;100.00;145510.75;5033361;28;20024;-67
2022/12/14 07:56:09;;;;;;;37.93;14.63;;;;;;;-7.72;100.00;145506.94;5033172;28;20025;-67
2022/12/14 07:58:36;;;;;;;42.50;15.37;;;;;;;-7.68;100.00;145517.09;5031660;28;20110;-67
2022/12/14 08:01:22;;;;;;;32.40;12.40;;;;;;;-7.63;100.00;145527.28;5033381;28;20260;-66
2022/12/14 08:03:50;;;;;;;35.70;13.80;;;;;;;-7.51;100.00;145557.84;5032878;28;20311;-66
2022/12/14 08:06:16;;;;;;;43.47;14.90;;;;;;;-7.36;100.00;145596.09;5033065;28;20288;-66
2022/12/14 08:08:42;;;;;;;41.07;14.67;;;;;;;-7.36;100.00;145596.09;5032812;28;20261;-67
2022/12/14 08:11:08;;;;;;;36.23;13.80;;;;;;;-7.36;100.00;145596.09;5029492;28;20372;-67
2022/12/14 08:13:33;;;;;;;33.83;14.03;;;;;;;-7.38;100.00;145592.28;5031419;28;20029;-67
2022/12/14 08:16:07;;;;;;;32.47;12.17;;;;;;;-7.34;100.00;145601.19;5032906;28;20342;-67
2022/12/14 08:18:32;;;;;;;36.63;14.77;;;;;;;-7.35;100.00;145598.63;5032879;28;20492;-66
2022/12/14 08:20:58;;;;;;;37.83;15.03;;;;;;;-7.32;100.00;145605.00;5032930;28;20257;-67
2022/12/14 08:23:24;;;;;;;38.60;15.40;;;;;;;-7.30;100.00;145611.34;5032545;28;20018;-66
2022/12/14 08:25:57;;;;;;;41.33;16.00;;;;;;;-7.26;100.00;145621.56;5032655;28;20389;-66
2022/12/14 08:28:23;;;;;;;41.37;16.97;;;;;;;-7.19;100.00;145638.09;5030638;28;20025;-67
2022/12/14 08:30:49;;;;;;;42.03;17.87;;;;;;;-7.13;100.00;145653.41;5031077;28;20286;-66
2022/12/14 08:33:15;;;;;;;40.70;16.50;;;;;;;-7.12;100.00;145657.22;5031596;28;20616;-66
2022/12/14 08:35:40;;;;;;;55.67;23.67;;;;;;;-6.95;100.00;145698.00;5012789;28;20261;-66
2022/12/14 08:38:06;;;;;;;48.70;18.03;;;;;;;-6.87;100.00;145719.66;5012932;28;20025;-66
2022/12/14 08:40:34;;;;;;;40.57;17.17;;;;;;;-6.86;100.00;145720.94;5026656;28;20493;-66
2022/12/14 08:42:59;;;;;;;44.00;17.20;;;;;;;-6.85;100.00;145723.50;5030913;28;20051;-67
2022/12/14 08:45:25;;;;;;;47.03;19.03;;;;;;;-6.13;100.00;145904.53;5032545;28;20352;-66
2022/12/14 08:47:50;;;;;;;39.17;16.20;;;;;;;-5.33;100.00;146106.06;5032475;28;20527;-67
2022/12/14 08:50:16;;;;;;;46.47;17.27;;;;;;;-4.96;100.00;146198.00;5032126;28;20056;-67
2022/12/14 08:52:41;;;;;;;32.67;12.97;;;;;;;-4.81;100.00;146236.28;5032305;28;20104;-67
2022/12/14 08:55:07;;;;;;;33.30;14.00;;;;;;;-5.07;100.00;146169.88;5032378;28;20028;-67
2022/12/14 08:57:32;;;;;;;37.83;15.87;;;;;;;-5.38;100.00;146093.28;5030598;28;20108;-67
2022/12/14 08:59:58;;;;;;;39.70;15.87;;;;;;;-5.50;100.00;146062.66;5031780;28;20053;-67
2022/12/14 09:02:23;;;;;;;32.57;13.17;;;;;;;-5.50;100.00;146062.66;5018694;28;20088;-66
2022/12/14 09:04:49;;;;;;;29.33;12.13;;;;;;;-5.49;100.00;146065.19;5011969;28;20036;-66
2022/12/14 09:07:14;;;;;;;33.90;14.77;;;;;;;-5.46;100.00;146072.84;5012315;28;20385;-66
2022/12/14 09:09:40;;;;;;;33.27;13.90;;;;;;;-5.48;100.00;146066.47;5012194;28;20026;-67
2022/12/14 09:12:06;;;;;;;32.83;13.57;;;;;;;-5.48;100.00;146067.75;5013292;28;20068;-67
2022/12/14 09:14:35;;;;;;;29.00;13.93;;;;;;;-5.49;100.00;146065.19;5031943;28;20032;-66
2022/12/14 09:17:02;;;;;;;35.60;15.93;;;;;;;-5.52;100.00;146057.56;5031694;28;20256;-66
2022/12/14 09:19:28;;;;;;;34.30;15.13;;;;;;;-5.52;100.00;146057.56;5031672;28;20351;-67
2022/12/14 09:21:53;;;;;;;28.97;12.20;;;;;;;-5.49;100.00;146065.19;5031845;28;20296;-66
2022/12/14 09:24:20;;;;;;;39.33;15.63;;;;;;;-5.46;100.00;146071.56;5030858;28;20026;-67
2022/12/14 09:26:46;;;;;;;34.67;15.20;;;;;;;-5.42;100.00;146083.09;5028903;28;20373;-65
2022/12/14 09:29:13;;;;;;;34.97;11.37;;;;;;;-5.40;100.00;146088.19;5031545;28;20268;-67
2022/12/14 09:31:39;;;;;;;24.47;9.57;;;;;;;-5.26;100.00;146121.38;5031480;28;20363;-66
2022/12/14 09:34:05;;;;;;;24.27;10.17;;;;;;;-5.12;100.00;146157.09;5030712;28;20280;-66
2022/12/14 09:36:31;;;;;;;27.07;11.50;;;;;;;-5.04;100.00;146177.53;5031551;28;20261;-66
2022/12/14 09:38:56;;;;;;;28.40;11.00;;;;;;;-5.00;100.00;146187.75;5031651;28;20048;-66
2022/12/14 09:41:34;;;;;;;25.07;10.60;;;;;;;-4.95;100.00;146200.53;5031598;28;20554;-66
2022/12/14 09:44:12;;;;;;;30.10;11.83;;;;;;;-4.89;100.00;146215.84;5031129;28;20740;-67
2022/12/14 09:46:47;;;;;;;30.00;13.60;;;;;;;-4.82;100.00;146233.72;5033889;28;20284;-67
2022/12/14 09:49:25;;;;;;;26.10;11.60;;;;;;;-4.73;100.00;146256.69;5035290;28;20306;-67
2022/12/14 09:51:53;;;;;;;27.33;10.67;;;;;;;-4.72;100.00;146258.00;5035680;28;20260;-67
2022/12/14 09:54:25;;;;;;;14.60;5.70;;;;;;;-4.67;100.00;146270.75;5032517;28;20612;-67
2022/12/14 09:56:52;;;;;;;25.55;9.20;;;;;;;-4.65;100.00;146275.84;5034354;28;20652;-66
2022/12/14 09:59:19;;;;;;;19.83;8.37;;;;;;;-4.61;100.00;146284.78;5032667;28;20511;-66
2022/12/14 10:02:23;;;;;;;12.70;6.30;;;;;;;-4.58;100.00;146292.47;5032313;28;20276;-66
2022/12/14 10:05:00;;;;;;;6.33;3.80;;;;;;;-4.55;100.00;146300.13;5031969;28;20272;-66
2022/12/14 10:07:38;;;;;;;27.40;10.90;;;;;;;-4.47;100.00;146320.59;5033984;28;20703;-65
2022/12/14 10:10:22;;;;;;;23.90;9.90;;;;;;;-4.34;100.00;146352.53;5034389;28;20256;-68
2022/12/14 10:12:53;;;;;;;20.10;8.20;;;;;;;-4.28;100.00;146367.81;5032808;28;21134;-67
2022/12/14 10:15:31;;;;;;;25.33;11.40;;;;;;;-4.29;100.00;146365.28;5034521;28;20268;-68
2022/12/14 10:17:59;;;;;;;26.83;12.23;;;;;;;-4.27;100.00;146371.66;5031830;28;20025;-66
2022/12/14 10:20:33;;;;;;;30.53;13.20;;;;;;;-4.27;100.00;146371.66;5031101;28;20279;-66
2022/12/14 10:23:00;;;;;;;26.80;11.73;;;;;;;-4.18;100.00;146394.66;5032534;28;20291;-66
2022/12/14 10:25:36;;;;;;;26.40;12.90;;;;;;;-4.14;100.00;146404.88;5034407;28;20287;-66
2022/12/14 10:28:55;;;;;;;27.30;12.40;;;;;;;-4.03;100.00;146431.72;5032355;28;20279;-66
2022/12/14 10:31:51;;;;;;;24.10;11.07;;;;;;;-3.91;100.00;146461.13;5001964;28;20828;-66
2022/12/14 10:34:19;;;;;;;23.97;10.37;;;;;;;-3.81;100.00;146486.69;4994248;28;20348;-67
2022/12/14 10:36:54;;;;;;;29.07;11.13;;;;;;;-3.75;100.00;146502.03;4994922;28;20367;-66
2022/12/14 10:39:38;;;;;;;25.57;12.27;;;;;;;-3.66;100.00;146525.03;4997319;28;20285;-66
2022/12/14 10:42:24;;;;;;;24.40;10.17;;;;;;;-3.62;100.00;146535.28;5005362;28;20660;-66
2022/12/14 10:45:14;;;;;;;24.87;10.73;;;;;;;-3.57;100.00;146546.78;4988207;28;20690;-66
2022/12/14 10:47:45;;;;;;;25.73;11.30;;;;;;;-3.53;100.00;146556.97;4986995;28;20312;-66
2022/12/14 10:50:34;;;;;;;27.10;12.40;;;;;;;-3.49;100.00;146565.97;4973387;28;20314;-66
2022/12/14 10:53:02;;;;;;;9.83;4.87;;;;;;;-3.33;100.00;146608.16;4978748;28;20061;-67
2022/12/14 10:55:37;;;;;;;21.87;9.33;;;;;;;-3.27;100.00;146622.19;4997974;28;20273;-67
2022/12/14 10:58:02;;;;;;;20.00;8.17;;;;;;;-3.20;100.00;146640.13;4988951;28;20356;-67
2022/12/14 11:00:28;;;;;;;21.13;10.70;;;;;;;-3.12;100.00;146660.59;4991363;28;20278;-65
2022/12/14 11:02:55;;;;;;;21.57;10.63;;;;;;;-3.07;100.00;146673.38;4991145;28;20061;-64
2022/12/14 11:05:25;;;;;;;24.87;11.63;;;;;;;-3.03;100.00;146683.63;5016453;28;20049;-64
2022/12/14 11:07:51;;;;;;;27.00;12.03;;;;;;;-2.99;100.00;146693.84;5031793;28;20283;-65
2022/12/14 11:10:21;;;;;;;20.67;10.60;;;;;;;-2.89;100.00;146716.91;5032339;28;21028;-64
2022/12/14 11:13:19;;;;;;;24.93;12.00;;;;;;;-2.93;100.00;146706.63;5031212;28;20044;-64
2022/12/14 11:15:47;;;;;;;18.43;7.00;;;;;;;-2.81;100.00;146737.34;5032600;28;20256;-64
2022/12/14 11:18:15;;;;;;;17.43;7.43;;;;;;;-2.66;100.00;146777.03;5032942;28;20744;-64
2022/12/14 11:20:53;;;;;;;15.90;7.70;;;;;;;-2.60;100.00;146791.09;5033006;28;20294;-64
2022/12/14 11:23:27;;;;;;;20.13;9.50;;;;;;;-2.52;100.00;146810.31;5032510;28;20267;-65
2022/12/14 11:26:01;;;;;;;23.50;10.70;;;;;;;-2.55;100.00;146802.59;5032808;28;21016;-65
2022/12/14 11:28:38;;;;;;;20.83;8.67;;;;;;;-2.48;100.00;146821.81;5028081;28;20264;-64
2022/12/14 11:31:12;;;;;;;21.93;10.37;;;;;;;-2.45;100.00;146829.47;5015987;28;20282;-65